createdAt,value
2019-02-19T00:04:17.327Z,102.43
2019-02-19T00:09:19.345Z,396.67
2019-02-19T00:14:20.973Z,680.33
2019-02-19T00:19:22.651Z,533.97
2019-02-19T00:24:24.209Z,120.40
2019-02-19T00:29:25.826Z,88.07
2019-02-19T00:34:27.505Z,133.30
2019-02-19T00:39:29.445Z,630.80
2019-02-19T00:44:31.003Z,241.37
2019-02-19T00:49:32.572Z,285.50
2019-02-19T00:54:34.132Z,871.57
2019-02-19T00:59:35.695Z,670.63
2019-02-19T01:04:37.387Z,406.27
2019-02-19T01:09:39.134Z,170.93
2019-02-19T01:14:40.873Z,455.27
2019-02-19T01:19:42.573Z,330.77
2019-02-19T01:24:44.129Z,487.97
2019-02-19T01:29:45.684Z,420.70
2019-02-19T01:34:47.277Z,524.67
2019-02-19T01:39:48.929Z,129.57
2019-02-19T01:44:50.490Z,194.40
2019-02-19T01:49:52.045Z,110.83
2019-02-19T01:54:53.646Z,101.30
2019-02-19T01:59:55.201Z,73.17
2019-02-19T02:04:56.760Z,119.77
2019-02-19T02:09:58.359Z,139.30
2019-02-19T02:15:00.022Z,144.00
2019-02-19T02:20:01.921Z,102.37
2019-02-19T02:25:04.131Z,153.77
2019-02-19T02:30:07.081Z,73.50
2019-02-19T02:35:11.251Z,65.10
2019-02-19T02:40:12.706Z,62.77
2019-02-19T02:45:14.234Z,66.03
2019-02-19T02:50:15.794Z,70.40
2019-02-19T02:55:17.369Z,74.73
2019-02-19T03:00:19.074Z,75.80
2019-02-19T03:05:20.631Z,75.03
2019-02-19T03:10:22.230Z,68.70
2019-02-19T03:15:23.841Z,63.67
2019-02-19T03:20:25.404Z,69.50
2019-02-19T03:25:26.969Z,73.17
2019-02-19T03:30:28.568Z,73.30
2019-02-19T03:35:30.160Z,56.20
2019-02-19T03:40:32.009Z,61.67
2019-02-19T03:45:33.619Z,58.83
2019-02-19T03:50:35.221Z,59.23
2019-02-19T03:55:36.785Z,71.70
2019-02-19T04:00:38.605Z,62.73
2019-02-19T04:05:40.373Z,51.53
2019-02-19T04:10:42.067Z,66.40
2019-02-19T04:15:43.687Z,56.13
2019-02-19T04:20:45.282Z,55.80
2019-02-19T04:25:46.944Z,60.13
2019-02-19T04:30:48.523Z,73.50
2019-02-19T04:35:50.079Z,45.87
2019-02-19T04:40:51.629Z,50.63
2019-02-19T04:45:53.253Z,50.30
2019-02-19T04:50:54.806Z,55.70
2019-02-19T04:55:56.360Z,46.33
2019-02-19T05:00:57.912Z,49.37
2019-02-19T05:05:59.476Z,47.67
2019-02-19T05:11:01.173Z,46.03
2019-02-19T05:16:03.965Z,66.03
2019-02-19T05:21:05.575Z,39.37
2019-02-19T05:26:07.254Z,50.07
2019-02-19T05:31:08.845Z,37.17
2019-02-19T05:36:10.410Z,44.53
2019-02-19T05:41:11.986Z,42.77
2019-02-19T05:46:13.612Z,48.77
2019-02-19T05:51:15.169Z,52.40
2019-02-19T05:56:16.729Z,42.33
2019-02-19T06:01:18.297Z,44.27
2019-02-19T06:06:19.906Z,61.80
2019-02-19T06:11:21.507Z,59.07
2019-02-19T06:16:23.134Z,47.10
2019-02-19T06:21:24.789Z,43.77
2019-02-19T06:26:26.348Z,55.93
2019-02-19T06:31:27.933Z,57.93
2019-02-19T06:36:29.602Z,89.40
2019-02-19T06:41:31.237Z,115.80
2019-02-19T06:46:32.942Z,205.43
2019-02-19T06:51:34.534Z,152.50
2019-02-19T06:56:36.120Z,252.43
2019-02-19T07:01:40.790Z,147.73
2019-02-19T07:06:42.387Z,196.53
2019-02-19T07:11:43.981Z,151.73
2019-02-19T07:16:45.548Z,63.67
2019-02-19T07:21:47.155Z,53.40
2019-02-19T07:26:48.752Z,67.20
2019-02-19T07:31:50.309Z,60.80
2019-02-19T07:36:51.869Z,94.43
2019-02-19T07:41:53.806Z,82.10
2019-02-19T07:46:55.383Z,89.07
2019-02-19T07:51:57.009Z,60.63
2019-02-19T07:56:58.575Z,57.80
2019-02-19T08:02:00.147Z,57.63
2019-02-19T08:07:01.721Z,70.63
2019-02-19T08:12:03.304Z,52.83
2019-02-19T08:17:04.911Z,60.93
2019-02-19T08:22:06.785Z,64.70
2019-02-19T08:27:08.375Z,71.47
2019-02-19T08:32:10.050Z,58.33
2019-02-19T08:37:14.113Z,72.90
2019-02-19T08:42:15.764Z,74.43
2019-02-19T08:47:17.336Z,81.73
2019-02-19T08:52:19.061Z,77.10
2019-02-19T08:57:20.957Z,74.77
2019-02-19T09:02:22.526Z,74.50
2019-02-19T09:07:24.172Z,70.30
2019-02-19T09:12:25.737Z,83.53
2019-02-19T09:17:27.331Z,84.47
2019-02-19T09:22:28.963Z,86.20
2019-02-19T09:27:30.506Z,86.50
2019-02-19T09:32:32.082Z,114.80
2019-02-19T09:37:33.691Z,106.53
2019-02-19T09:42:35.323Z,92.80
2019-02-19T09:47:36.906Z,96.00
2019-02-19T09:52:38.461Z,112.07
2019-02-19T09:57:40.067Z,118.43
2019-02-19T10:02:43.724Z,107.10
2019-02-19T10:07:45.216Z,96.63
2019-02-19T10:12:46.851Z,106.33
2019-02-19T10:17:48.449Z,107.87
2019-02-19T10:22:50.025Z,107.57
2019-02-19T10:27:52.097Z,102.43
2019-02-19T10:32:53.658Z,110.97
2019-02-19T10:37:55.431Z,117.73
2019-02-19T10:42:57.113Z,125.97
2019-02-19T10:47:58.681Z,115.60
2019-02-19T10:53:00.253Z,110.40
2019-02-19T10:58:01.925Z,122.87
2019-02-19T11:03:03.494Z,113.20
2019-02-19T11:08:05.068Z,120.80
2019-02-19T11:13:06.706Z,114.93
2019-02-19T11:18:08.416Z,119.77
2019-02-19T11:23:09.977Z,114.63
2019-02-19T11:28:12.153Z,117.97
2019-02-19T11:33:13.713Z,132.37
2019-02-19T11:38:15.281Z,116.93
2019-02-19T11:43:16.953Z,131.33
2019-02-19T11:48:19.214Z,126.17
2019-02-19T11:53:22.290Z,131.33
2019-02-19T11:58:24.049Z,93.87
2019-02-19T12:03:25.660Z,84.30
2019-02-19T12:08:27.234Z,64.80
2019-02-19T12:13:28.946Z,54.50
2019-02-19T12:18:30.505Z,51.97
2019-02-19T12:23:32.082Z,59.47
2019-02-19T12:28:33.666Z,46.83
2019-02-19T12:33:35.293Z,50.13
2019-02-19T12:38:36.855Z,55.73
2019-02-19T12:43:38.498Z,51.57
2019-02-19T12:48:40.067Z,49.83
2019-02-19T12:53:41.635Z,57.97
2019-02-19T12:58:43.202Z,50.10
2019-02-19T13:03:44.842Z,56.30
2019-02-19T13:08:46.422Z,50.20
2019-02-19T13:13:48.129Z,48.83
2019-02-19T13:18:49.694Z,53.03
2019-02-19T13:23:51.400Z,60.07
2019-02-19T13:28:52.964Z,51.70
2019-02-19T13:33:54.567Z,50.43
2019-02-19T13:38:56.117Z,50.60
2019-02-19T13:43:57.785Z,47.40
2019-02-19T13:48:59.397Z,55.57
2019-02-19T13:54:02.893Z,50.77
2019-02-19T13:59:04.456Z,49.47
2019-02-19T14:04:06.013Z,62.67
2019-02-19T14:09:07.601Z,65.73
2019-02-19T14:14:12.994Z,66.73
2019-02-19T14:19:21.192Z,46.13
2019-02-19T14:24:20.276Z,50.70
2019-02-19T14:29:40.262Z,56.00
2019-02-19T14:35:00.335Z,52.80
2019-02-19T14:40:10.062Z,45.47
2019-02-19T14:45:11.931Z,52.90
2019-02-19T14:50:13.962Z,58.90
2019-02-19T14:55:35.754Z,61.20
2019-02-19T15:00:45.120Z,59.50
2019-02-19T15:05:49.090Z,57.50
2019-02-19T15:10:57.174Z,58.20
2019-02-19T15:16:00.714Z,58.27
2019-02-19T15:21:19.657Z,75.57
2019-02-19T15:26:23.126Z,57.10
2019-02-19T15:31:43.430Z,61.13
2019-02-19T15:36:58.474Z,58.37
2019-02-19T15:42:01.947Z,47.93
2019-02-19T15:47:06.049Z,60.67
2019-02-19T15:52:28.192Z,54.47
2019-02-19T15:57:40.885Z,50.93
2019-02-19T16:02:47.098Z,55.13
2019-02-19T16:07:53.102Z,58.77
2019-02-19T16:13:00.430Z,64.77
2019-02-19T16:18:11.173Z,72.97
2019-02-19T16:23:32.406Z,78.83
2019-02-19T16:28:44.703Z,88.77
2019-02-19T16:33:57.130Z,72.10
2019-02-19T16:39:00.598Z,66.70
2019-02-19T16:44:04.084Z,68.53
2019-02-19T16:49:07.628Z,77.27
2019-02-19T16:54:12.195Z,69.90
2019-02-19T16:59:13.906Z,80.23
2019-02-19T17:04:17.417Z,89.50
2019-02-19T17:09:33.387Z,115.03
2019-02-19T17:14:48.689Z,110.33
2019-02-19T17:20:21.047Z,101.97
2019-02-19T17:25:17.426Z,88.47
2019-02-19T17:30:20.947Z,85.33
2019-02-19T17:35:27.325Z,95.47
2019-02-19T17:40:33.458Z,84.83
2019-02-19T17:45:55.357Z,104.43
2019-02-19T17:50:59.760Z,101.10
2019-02-19T17:56:27.021Z,87.90
2019-02-19T18:01:30.678Z,85.47
2019-02-19T18:06:37.187Z,96.80
2019-02-19T18:11:57.625Z,97.47
2019-02-19T18:17:03.908Z,94.53
2019-02-19T18:22:06.693Z,93.37
2019-02-19T18:27:08.267Z,89.73
2019-02-19T18:32:09.854Z,78.50
2019-02-19T18:37:12.197Z,89.53
2019-02-19T18:42:13.779Z,103.27
2019-02-19T18:47:16.483Z,100.67
2019-02-19T18:52:18.261Z,100.43
2019-02-19T18:57:19.837Z,100.17
2019-02-19T19:02:21.476Z,106.10
2019-02-19T19:07:23.056Z,104.43
2019-02-19T19:12:24.687Z,105.80
2019-02-19T19:17:26.310Z,105.00
2019-02-19T19:22:28.251Z,95.60
2019-02-19T19:27:29.879Z,86.90
2019-02-19T19:32:31.473Z,79.27
2019-02-19T19:37:33.058Z,88.00
2019-02-19T19:42:34.886Z,95.53
2019-02-19T19:47:36.443Z,87.10
2019-02-19T19:52:38.110Z,110.83
2019-02-19T19:57:39.680Z,138.30
2019-02-19T20:02:41.257Z,89.83
2019-02-19T20:07:42.835Z,83.90
2019-02-19T20:12:44.411Z,75.27
2019-02-19T20:17:46.016Z,96.33
2019-02-19T20:22:47.662Z,88.73
2019-02-19T20:27:49.331Z,84.27
2019-02-19T20:32:51.005Z,82.63
2019-02-19T20:37:54.231Z,81.63
2019-02-19T20:42:56.325Z,80.57
2019-02-19T20:47:59.802Z,77.83
2019-02-19T20:53:01.807Z,81.27
2019-02-19T20:58:03.660Z,72.20
2019-02-19T21:03:07.221Z,90.47
2019-02-19T21:08:09.594Z,68.57
2019-02-19T21:13:11.359Z,89.00
2019-02-19T21:18:13.686Z,88.90
2019-02-19T21:23:15.767Z,85.97
2019-02-19T21:28:17.570Z,99.43
2019-02-19T21:33:19.236Z,127.77
2019-02-19T21:38:20.893Z,137.20
2019-02-19T21:43:22.664Z,153.87
2019-02-19T21:48:24.538Z,148.17
2019-02-19T21:53:26.221Z,159.43
2019-02-19T21:58:27.887Z,155.27
2019-02-19T22:03:29.753Z,170.73
2019-02-19T22:08:31.513Z,158.37
2019-02-19T22:13:33.109Z,150.17
2019-02-19T22:18:34.669Z,152.80
2019-02-19T22:23:36.249Z,141.63
2019-02-19T22:28:37.854Z,155.10
2019-02-19T22:33:39.423Z,134.23
2019-02-19T22:38:41.024Z,132.13
2019-02-19T22:43:43.689Z,125.00
2019-02-19T22:48:45.266Z,129.43
2019-02-19T22:53:54.730Z,124.40
2019-02-19T22:58:56.289Z,115.60
2019-02-19T23:03:58.548Z,119.67
2019-02-19T23:09:00.189Z,124.00
2019-02-19T23:14:01.762Z,146.47
2019-02-19T23:19:04.762Z,162.93
2019-02-19T23:24:06.323Z,166.63
2019-02-19T23:29:07.898Z,182.83
2019-02-19T23:34:09.805Z,203.20
2019-02-19T23:39:11.425Z,206.40
2019-02-19T23:44:13.504Z,194.93
2019-02-19T23:49:15.218Z,185.53
2019-02-19T23:54:16.897Z,182.20
2019-02-19T23:59:18.466Z,166.80
